sensor_id;sensor_type;location;lat;lon;timestamp;temperature;humidity
53800;DHT22;39708;53.210;6.948;2022-12-18T00:01:33;-4.20;99.90
53800;DHT22;39708;53.210;6.948;2022-12-18T00:04:01;-4.10;99.90
53800;DHT22;39708;53.210;6.948;2022-12-18T00:06:28;-4.20;99.90
53800;DHT22;39708;53.210;6.948;2022-12-18T00:08:56;-4.20;99.90
53800;DHT22;39708;53.210;6.948;2022-12-18T00:11:24;-4.20;99.90
53800;DHT22;39708;53.210;6.948;2022-12-18T00:13:51;-4.20;99.90
53800;DHT22;39708;53.210;6.948;2022-12-18T00:16:19;-4.20;99.90
53800;DHT22;39708;53.210;6.948;2022-12-18T00:18:48;-4.20;99.90
53800;DHT22;39708;53.210;6.948;2022-12-18T00:21:15;-4.20;99.90
53800;DHT22;39708;53.210;6.948;2022-12-18T00:23:43;-4.20;99.90
53800;DHT22;39708;53.210;6.948;2022-12-18T00:26:17;-4.20;99.90
53800;DHT22;39708;53.210;6.948;2022-12-18T00:28:44;-4.10;99.90
53800;DHT22;39708;53.210;6.948;2022-12-18T00:31:13;-4.10;99.90
53800;DHT22;39708;53.210;6.948;2022-12-18T00:33:38;-4.20;99.90
53800;DHT22;39708;53.210;6.948;2022-12-18T00:36:13;-4.10;99.90
53800;DHT22;39708;53.210;6.948;2022-12-18T00:38:39;-4.10;99.90
53800;DHT22;39708;53.210;6.948;2022-12-18T00:41:06;-4.10;99.90
53800;DHT22;39708;53.210;6.948;2022-12-18T00:43:36;-4.10;99.90
53800;DHT22;39708;53.210;6.948;2022-12-18T00:46:02;-4.10;99.90
53800;DHT22;39708;53.210;6.948;2022-12-18T00:48:28;-4.10;99.90
53800;DHT22;39708;53.210;6.948;2022-12-18T00:50:53;-4.10;99.90
53800;DHT22;39708;53.210;6.948;2022-12-18T00:53:19;-4.10;99.90
53800;DHT22;39708;53.210;6.948;2022-12-18T00:55:45;-4.10;99.90
53800;DHT22;39708;53.210;6.948;2022-12-18T00:58:13;-4.20;99.90
53800;DHT22;39708;53.210;6.948;2022-12-18T01:00:39;-4.20;99.90
53800;DHT22;39708;53.210;6.948;2022-12-18T01:03:05;-4.00;99.90
53800;DHT22;39708;53.210;6.948;2022-12-18T01:05:31;-4.30;99.90
53800;DHT22;39708;53.210;6.948;2022-12-18T01:07:57;-3.80;99.90
53800;DHT22;39708;53.210;6.948;2022-12-18T01:10:24;-4.30;99.90
53800;DHT22;39708;53.210;6.948;2022-12-18T01:12:50;-4.30;99.90
53800;DHT22;39708;53.210;6.948;2022-12-18T01:15:16;-4.30;99.90
53800;DHT22;39708;53.210;6.948;2022-12-18T01:17:42;-4.40;99.90
53800;DHT22;39708;53.210;6.948;2022-12-18T01:20:10;-4.40;99.90
53800;DHT22;39708;53.210;6.948;2022-12-18T01:22:36;-4.40;99.90
53800;DHT22;39708;53.210;6.948;2022-12-18T01:25:03;-4.40;99.90
53800;DHT22;39708;53.210;6.948;2022-12-18T01:27:30;-4.40;99.90
53800;DHT22;39708;53.210;6.948;2022-12-18T01:29:55;-4.50;99.90
53800;DHT22;39708;53.210;6.948;2022-12-18T01:32:21;-4.50;99.90
53800;DHT22;39708;53.210;6.948;2022-12-18T01:34:47;-4.50;99.90
53800;DHT22;39708;53.210;6.948;2022-12-18T01:37:13;-4.50;99.90
53800;DHT22;39708;53.210;6.948;2022-12-18T01:39:39;-4.50;99.90
53800;DHT22;39708;53.210;6.948;2022-12-18T01:42:11;-4.50;99.90
53800;DHT22;39708;53.210;6.948;2022-12-18T01:50:11;-4.60;99.90
53800;DHT22;39708;53.210;6.948;2022-12-18T01:52:45;-3.80;99.90
53800;DHT22;39708;53.210;6.948;2022-12-18T01:55:12;-4.60;99.90
53800;DHT22;39708;53.210;6.948;2022-12-18T01:57:39;-4.70;99.90
53800;DHT22;39708;53.210;6.948;2022-12-18T02:00:12;-4.60;99.90
53800;DHT22;39708;53.210;6.948;2022-12-18T02:02:37;-4.60;99.90
53800;DHT22;39708;53.210;6.948;2022-12-18T02:05:04;-4.60;99.90
53800;DHT22;39708;53.210;6.948;2022-12-18T02:07:44;-4.60;99.90
53800;DHT22;39708;53.210;6.948;2022-12-18T02:12:56;-4.70;99.90
53800;DHT22;39708;53.210;6.948;2022-12-18T02:15:57;-4.70;99.90
53800;DHT22;39708;53.210;6.948;2022-12-18T02:18:30;-5.00;99.90
53800;DHT22;39708;53.210;6.948;2022-12-18T02:21:04;-5.20;99.90
53800;DHT22;39708;53.210;6.948;2022-12-18T02:26:37;-5.70;99.90
53800;DHT22;39708;53.210;6.948;2022-12-18T02:29:10;-5.80;99.90
53800;DHT22;39708;53.210;6.948;2022-12-18T02:31:45;-5.80;99.90
53800;DHT22;39708;53.210;6.948;2022-12-18T02:34:13;-5.70;99.90
53800;DHT22;39708;53.210;6.948;2022-12-18T02:36:40;-5.50;99.90
53800;DHT22;39708;53.210;6.948;2022-12-18T02:39:10;-5.30;99.90
53800;DHT22;39708;53.210;6.948;2022-12-18T02:41:36;-4.80;99.90
53800;DHT22;39708;53.210;6.948;2022-12-18T02:44:12;-5.30;99.90
53800;DHT22;39708;53.210;6.948;2022-12-18T02:46:41;-5.70;99.90
53800;DHT22;39708;53.210;6.948;2022-12-18T02:49:29;-6.30;99.90
53800;DHT22;39708;53.210;6.948;2022-12-18T02:57:46;-7.00;99.90
53800;DHT22;39708;53.210;6.948;2022-12-18T03:00:24;-7.10;99.90
53800;DHT22;39708;53.210;6.948;2022-12-18T03:02:59;-7.30;99.90
53800;DHT22;39708;53.210;6.948;2022-12-18T03:05:31;-7.40;99.90
53800;DHT22;39708;53.210;6.948;2022-12-18T03:08:05;-7.40;99.90
53800;DHT22;39708;53.210;6.948;2022-12-18T03:10:38;-7.30;99.90
53800;DHT22;39708;53.210;6.948;2022-12-18T03:13:15;-7.20;99.90
53800;DHT22;39708;53.210;6.948;2022-12-18T03:15:51;-7.10;99.90
53800;DHT22;39708;53.210;6.948;2022-12-18T03:18:36;-7.10;99.90
53800;DHT22;39708;53.210;6.948;2022-12-18T03:21:05;-7.00;99.90
53800;DHT22;39708;53.210;6.948;2022-12-18T03:23:39;-6.70;99.90
53800;DHT22;39708;53.210;6.948;2022-12-18T03:26:09;-6.50;99.90
53800;DHT22;39708;53.210;6.948;2022-12-18T03:28:39;-5.30;99.90
53800;DHT22;39708;53.210;6.948;2022-12-18T03:31:09;-5.90;99.90
53800;DHT22;39708;53.210;6.948;2022-12-18T03:33:47;-6.20;99.90
53800;DHT22;39708;53.210;6.948;2022-12-18T03:36:16;-6.80;99.90
53800;DHT22;39708;53.210;6.948;2022-12-18T03:38:42;-7.20;99.90
53800;DHT22;39708;53.210;6.948;2022-12-18T03:41:33;-7.40;99.90
53800;DHT22;39708;53.210;6.948;2022-12-18T03:49:33;-7.40;99.90
53800;DHT22;39708;53.210;6.948;2022-12-18T03:52:04;-7.50;99.90
53800;DHT22;39708;53.210;6.948;2022-12-18T03:54:32;-7.60;99.90
53800;DHT22;39708;53.210;6.948;2022-12-18T03:57:11;-7.80;99.90
53800;DHT22;39708;53.210;6.948;2022-12-18T03:59:39;-7.90;99.90
53800;DHT22;39708;53.210;6.948;2022-12-18T04:02:07;-7.90;99.90
53800;DHT22;39708;53.210;6.948;2022-12-18T04:04:34;-7.90;99.90
53800;DHT22;39708;53.210;6.948;2022-12-18T04:07:00;-7.80;99.90
53800;DHT22;39708;53.210;6.948;2022-12-18T04:09:28;-7.90;99.90
53800;DHT22;39708;53.210;6.948;2022-12-18T04:11:55;-7.90;99.90
53800;DHT22;39708;53.210;6.948;2022-12-18T04:14:21;-7.70;99.90
53800;DHT22;39708;53.210;6.948;2022-12-18T04:16:46;-7.30;99.90
53800;DHT22;39708;53.210;6.948;2022-12-18T04:19:12;-6.70;99.90
53800;DHT22;39708;53.210;6.948;2022-12-18T04:21:38;-6.90;99.90
53800;DHT22;39708;53.210;6.948;2022-12-18T04:24:04;-7.20;99.90
53800;DHT22;39708;53.210;6.948;2022-12-18T04:26:30;-7.60;99.90
53800;DHT22;39708;53.210;6.948;2022-12-18T04:28:55;-8.00;99.90
53800;DHT22;39708;53.210;6.948;2022-12-18T04:31:21;-8.00;99.90
53800;DHT22;39708;53.210;6.948;2022-12-18T04:33:47;-8.20;99.90
53800;DHT22;39708;53.210;6.948;2022-12-18T04:36:13;-8.30;99.90
53800;DHT22;39708;53.210;6.948;2022-12-18T04:38:38;-8.30;99.90
53800;DHT22;39708;53.210;6.948;2022-12-18T04:41:04;-8.40;99.90
53800;DHT22;39708;53.210;6.948;2022-12-18T04:43:29;-8.50;99.90
53800;DHT22;39708;53.210;6.948;2022-12-18T04:46:04;-8.60;99.90
53800;DHT22;39708;53.210;6.948;2022-12-18T04:48:30;-8.60;99.90
53800;DHT22;39708;53.210;6.948;2022-12-18T04:50:56;-8.70;99.90
53800;DHT22;39708;53.210;6.948;2022-12-18T04:53:22;-8.60;99.90
53800;DHT22;39708;53.210;6.948;2022-12-18T04:55:47;-8.50;99.90
53800;DHT22;39708;53.210;6.948;2022-12-18T04:58:13;-8.50;99.90
53800;DHT22;39708;53.210;6.948;2022-12-18T05:00:38;-8.60;99.90
53800;DHT22;39708;53.210;6.948;2022-12-18T05:03:04;-8.60;99.90
53800;DHT22;39708;53.210;6.948;2022-12-18T05:05:30;-8.30;99.90
53800;DHT22;39708;53.210;6.948;2022-12-18T05:07:56;-8.00;99.90
53800;DHT22;39708;53.210;6.948;2022-12-18T05:10:22;-7.80;99.90
53800;DHT22;39708;53.210;6.948;2022-12-18T05:12:47;-7.00;99.90
53800;DHT22;39708;53.210;6.948;2022-12-18T05:15:30;-7.30;99.90
53800;DHT22;39708;53.210;6.948;2022-12-18T05:17:58;-8.00;99.90
53800;DHT22;39708;53.210;6.948;2022-12-18T05:20:24;-8.50;99.90
53800;DHT22;39708;53.210;6.948;2022-12-18T05:22:50;-8.70;99.90
53800;DHT22;39708;53.210;6.948;2022-12-18T05:25:16;-8.90;99.90
53800;DHT22;39708;53.210;6.948;2022-12-18T05:27:42;-9.00;99.90
53800;DHT22;39708;53.210;6.948;2022-12-18T05:30:09;-9.10;99.90
53800;DHT22;39708;53.210;6.948;2022-12-18T05:32:35;-9.20;99.90
53800;DHT22;39708;53.210;6.948;2022-12-18T05:35:00;-9.10;99.90
53800;DHT22;39708;53.210;6.948;2022-12-18T05:37:26;-9.20;99.90
53800;DHT22;39708;53.210;6.948;2022-12-18T05:39:52;-9.10;99.90
53800;DHT22;39708;53.210;6.948;2022-12-18T05:42:17;-9.20;99.90
53800;DHT22;39708;53.210;6.948;2022-12-18T05:44:43;-9.10;99.90
53800;DHT22;39708;53.210;6.948;2022-12-18T05:47:09;-9.10;99.90
53800;DHT22;39708;53.210;6.948;2022-12-18T05:49:35;-9.10;99.90
53800;DHT22;39708;53.210;6.948;2022-12-18T05:52:00;-9.10;99.90
53800;DHT22;39708;53.210;6.948;2022-12-18T05:54:29;-9.00;99.90
53800;DHT22;39708;53.210;6.948;2022-12-18T05:56:56;-8.70;99.90
53800;DHT22;39708;53.210;6.948;2022-12-18T05:59:22;-8.50;99.90
53800;DHT22;39708;53.210;6.948;2022-12-18T06:01:48;-8.00;99.90
53800;DHT22;39708;53.210;6.948;2022-12-18T06:04:14;-7.60;99.90
53800;DHT22;39708;53.210;6.948;2022-12-18T06:06:39;-7.40;99.90
53800;DHT22;39708;53.210;6.948;2022-12-18T06:09:05;-8.10;99.90
53800;DHT22;39708;53.210;6.948;2022-12-18T06:11:34;-8.50;99.90
53800;DHT22;39708;53.210;6.948;2022-12-18T06:14:01;-8.70;99.90
53800;DHT22;39708;53.210;6.948;2022-12-18T06:16:28;-8.80;99.90
53800;DHT22;39708;53.210;6.948;2022-12-18T06:18:56;-9.00;99.90
53800;DHT22;39708;53.210;6.948;2022-12-18T06:21:22;-9.00;99.90
53800;DHT22;39708;53.210;6.948;2022-12-18T06:23:48;-9.00;99.90
53800;DHT22;39708;53.210;6.948;2022-12-18T06:26:14;-8.80;99.90
53800;DHT22;39708;53.210;6.948;2022-12-18T06:28:40;-8.70;99.90
53800;DHT22;39708;53.210;6.948;2022-12-18T06:31:06;-8.60;99.90
53800;DHT22;39708;53.210;6.948;2022-12-18T06:33:32;-8.60;99.90
53800;DHT22;39708;53.210;6.948;2022-12-18T06:36:09;-8.40;99.90
53800;DHT22;39708;53.210;6.948;2022-12-18T06:38:37;-7.70;99.90
53800;DHT22;39708;53.210;6.948;2022-12-18T06:41:21;-8.30;99.90
53800;DHT22;39708;53.210;6.948;2022-12-18T06:43:47;-8.30;99.90
53800;DHT22;39708;53.210;6.948;2022-12-18T06:46:13;-8.30;99.90
53800;DHT22;39708;53.210;6.948;2022-12-18T06:48:39;-8.40;99.90
53800;DHT22;39708;53.210;6.948;2022-12-18T06:51:05;-8.60;99.90
53800;DHT22;39708;53.210;6.948;2022-12-18T06:53:32;-8.50;99.90
53800;DHT22;39708;53.210;6.948;2022-12-18T06:56:06;-8.80;99.90
53800;DHT22;39708;53.210;6.948;2022-12-18T06:58:32;-8.80;99.90
53800;DHT22;39708;53.210;6.948;2022-12-18T07:01:02;-8.80;99.90
53800;DHT22;39708;53.210;6.948;2022-12-18T07:03:28;-8.70;99.90
53800;DHT22;39708;53.210;6.948;2022-12-18T07:05:54;-8.70;99.90
53800;DHT22;39708;53.210;6.948;2022-12-18T07:08:19;-8.60;99.90
53800;DHT22;39708;53.210;6.948;2022-12-18T07:10:45;-8.60;99.90
53800;DHT22;39708;53.210;6.948;2022-12-18T07:13:11;-8.40;99.90
53800;DHT22;39708;53.210;6.948;2022-12-18T07:15:36;-8.20;99.90
53800;DHT22;39708;53.210;6.948;2022-12-18T07:18:02;-7.90;99.90
53800;DHT22;39708;53.210;6.948;2022-12-18T07:20:28;-6.60;99.90
53800;DHT22;39708;53.210;6.948;2022-12-18T07:22:53;-7.20;99.90
53800;DHT22;39708;53.210;6.948;2022-12-18T07:25:19;-7.70;99.90
53800;DHT22;39708;53.210;6.948;2022-12-18T07:27:44;-8.30;99.90
53800;DHT22;39708;53.210;6.948;2022-12-18T07:30:10;-8.70;99.90
53800;DHT22;39708;53.210;6.948;2022-12-18T07:32:36;-8.90;99.90
53800;DHT22;39708;53.210;6.948;2022-12-18T07:35:02;-9.20;99.90
53800;DHT22;39708;53.210;6.948;2022-12-18T07:37:28;-9.30;99.90
53800;DHT22;39708;53.210;6.948;2022-12-18T07:39:53;-9.40;99.90
53800;DHT22;39708;53.210;6.948;2022-12-18T07:42:19;-9.50;99.90
53800;DHT22;39708;53.210;6.948;2022-12-18T07:45:00;-9.50;99.90
53800;DHT22;39708;53.210;6.948;2022-12-18T07:47:28;-9.50;99.90
53800;DHT22;39708;53.210;6.948;2022-12-18T07:49:54;-9.50;99.90
53800;DHT22;39708;53.210;6.948;2022-12-18T07:52:20;-9.50;99.90
53800;DHT22;39708;53.210;6.948;2022-12-18T07:54:46;-9.50;99.90
53800;DHT22;39708;53.210;6.948;2022-12-18T07:57:16;-9.40;99.90
53800;DHT22;39708;53.210;6.948;2022-12-18T07:59:42;-9.30;99.90
53800;DHT22;39708;53.210;6.948;2022-12-18T08:02:08;-9.20;99.90
53800;DHT22;39708;53.210;6.948;2022-12-18T08:04:33;-9.10;99.90
53800;DHT22;39708;53.210;6.948;2022-12-18T08:06:59;-9.00;99.90
53800;DHT22;39708;53.210;6.948;2022-12-18T08:09:24;-8.90;99.90
53800;DHT22;39708;53.210;6.948;2022-12-18T08:11:50;-9.00;99.90
53800;DHT22;39708;53.210;6.948;2022-12-18T08:14:16;-8.80;99.90
53800;DHT22;39708;53.210;6.948;2022-12-18T08:16:41;-8.30;99.90
53800;DHT22;39708;53.210;6.948;2022-12-18T08:19:07;-7.90;99.90
53800;DHT22;39708;53.210;6.948;2022-12-18T08:21:35;-7.70;99.90
53800;DHT22;39708;53.210;6.948;2022-12-18T08:24:01;-7.50;99.90
53800;DHT22;39708;53.210;6.948;2022-12-18T08:26:29;-7.30;99.90
53800;DHT22;39708;53.210;6.948;2022-12-18T08:28:56;-7.30;99.90
53800;DHT22;39708;53.210;6.948;2022-12-18T08:31:23;-7.30;99.90
53800;DHT22;39708;53.210;6.948;2022-12-18T08:33:51;-7.40;99.90
53800;DHT22;39708;53.210;6.948;2022-12-18T08:36:18;-7.30;99.90
53800;DHT22;39708;53.210;6.948;2022-12-18T08:38:45;-7.20;99.90
53800;DHT22;39708;53.210;6.948;2022-12-18T08:41:13;-6.90;99.90
53800;DHT22;39708;53.210;6.948;2022-12-18T08:43:39;-6.90;99.90
53800;DHT22;39708;53.210;6.948;2022-12-18T08:46:25;-6.80;99.90
53800;DHT22;39708;53.210;6.948;2022-12-18T08:48:52;-6.30;99.90
53800;DHT22;39708;53.210;6.948;2022-12-18T08:51:19;-6.60;99.90
53800;DHT22;39708;53.210;6.948;2022-12-18T08:53:45;-7.00;99.90
53800;DHT22;39708;53.210;6.948;2022-12-18T08:56:12;-7.40;99.90
53800;DHT22;39708;53.210;6.948;2022-12-18T08:58:38;-7.80;99.90
53800;DHT22;39708;53.210;6.948;2022-12-18T09:01:06;-8.00;99.90
53800;DHT22;39708;53.210;6.948;2022-12-18T09:03:32;-8.20;99.90
53800;DHT22;39708;53.210;6.948;2022-12-18T09:05:58;-8.20;99.90
53800;DHT22;39708;53.210;6.948;2022-12-18T09:08:25;-8.40;99.90
53800;DHT22;39708;53.210;6.948;2022-12-18T09:10:51;-8.40;99.90
53800;DHT22;39708;53.210;6.948;2022-12-18T09:13:17;-8.30;99.90
53800;DHT22;39708;53.210;6.948;2022-12-18T09:15:44;-8.30;99.90
53800;DHT22;39708;53.210;6.948;2022-12-18T09:18:11;-8.20;99.90
53800;DHT22;39708;53.210;6.948;2022-12-18T09:20:37;-8.10;99.90
53800;DHT22;39708;53.210;6.948;2022-12-18T09:23:04;-7.90;99.90
53800;DHT22;39708;53.210;6.948;2022-12-18T09:25:31;-7.90;99.90
53800;DHT22;39708;53.210;6.948;2022-12-18T09:28:02;-7.70;99.90
53800;DHT22;39708;53.210;6.948;2022-12-18T09:30:28;-7.70;99.90
53800;DHT22;39708;53.210;6.948;2022-12-18T09:32:54;-7.60;99.90
53800;DHT22;39708;53.210;6.948;2022-12-18T09:35:19;-7.60;99.90
53800;DHT22;39708;53.210;6.948;2022-12-18T09:37:45;-7.60;99.90
53800;DHT22;39708;53.210;6.948;2022-12-18T09:40:16;-7.60;99.90
53800;DHT22;39708;53.210;6.948;2022-12-18T09:42:47;-7.60;99.90
53800;DHT22;39708;53.210;6.948;2022-12-18T09:45:18;-7.70;99.90
53800;DHT22;39708;53.210;6.948;2022-12-18T09:47:45;-7.50;99.90
53800;DHT22;39708;53.210;6.948;2022-12-18T09:50:25;-7.40;99.90
53800;DHT22;39708;53.210;6.948;2022-12-18T09:52:55;-7.00;99.90
53800;DHT22;39708;53.210;6.948;2022-12-18T09:55:30;-6.70;99.90
53800;DHT22;39708;53.210;6.948;2022-12-18T09:58:05;-6.30;99.90
53800;DHT22;39708;53.210;6.948;2022-12-18T10:00:33;-5.90;99.90
53800;DHT22;39708;53.210;6.948;2022-12-18T10:03:09;-5.60;99.90
53800;DHT22;39708;53.210;6.948;2022-12-18T10:08:42;-5.20;99.90
53800;DHT22;39708;53.210;6.948;2022-12-18T10:16:44;-6.10;99.90
53800;DHT22;39708;53.210;6.948;2022-12-18T10:19:58;-6.30;99.90
53800;DHT22;39708;53.210;6.948;2022-12-18T10:27:45;-6.70;99.90
53800;DHT22;39708;53.210;6.948;2022-12-18T10:30:20;-6.70;99.90
53800;DHT22;39708;53.210;6.948;2022-12-18T10:32:46;-6.70;99.90
53800;DHT22;39708;53.210;6.948;2022-12-18T10:35:18;-6.70;99.90
53800;DHT22;39708;53.210;6.948;2022-12-18T10:43:41;-5.00;99.90
53800;DHT22;39708;53.210;6.948;2022-12-18T10:46:12;-4.50;99.90
53800;DHT22;39708;53.210;6.948;2022-12-18T10:48:57;-4.20;99.90
53800;DHT22;39708;53.210;6.948;2022-12-18T10:53:57;-3.80;99.90
53800;DHT22;39708;53.210;6.948;2022-12-18T10:56:24;-3.70;99.90
53800;DHT22;39708;53.210;6.948;2022-12-18T11:01:28;-3.60;99.90
53800;DHT22;39708;53.210;6.948;2022-12-18T11:04:02;-3.50;99.90
53800;DHT22;39708;53.210;6.948;2022-12-18T11:06:28;-3.40;99.90
53800;DHT22;39708;53.210;6.948;2022-12-18T11:09:01;-3.40;99.90
53800;DHT22;39708;53.210;6.948;2022-12-18T11:11:28;-3.30;99.90
53800;DHT22;39708;53.210;6.948;2022-12-18T11:14:06;-3.30;99.90
53800;DHT22;39708;53.210;6.948;2022-12-18T11:16:43;-3.30;99.90
53800;DHT22;39708;53.210;6.948;2022-12-18T11:19:34;-3.20;99.90
53800;DHT22;39708;53.210;6.948;2022-12-18T11:22:03;-3.20;99.90
53800;DHT22;39708;53.210;6.948;2022-12-18T11:24:34;-3.10;99.90
53800;DHT22;39708;53.210;6.948;2022-12-18T11:27:02;-3.10;99.90
53800;DHT22;39708;53.210;6.948;2022-12-18T11:29:39;-3.00;99.90
53800;DHT22;39708;53.210;6.948;2022-12-18T11:32:32;-3.00;99.90
53800;DHT22;39708;53.210;6.948;2022-12-18T11:35:33;-2.90;99.90
53800;DHT22;39708;53.210;6.948;2022-12-18T11:38:06;-2.90;99.90
53800;DHT22;39708;53.210;6.948;2022-12-18T11:40:40;-2.80;99.90
53800;DHT22;39708;53.210;6.948;2022-12-18T11:43:44;-2.80;99.90
53800;DHT22;39708;53.210;6.948;2022-12-18T11:46:27;-2.80;99.90
53800;DHT22;39708;53.210;6.948;2022-12-18T11:48:58;-2.70;99.90
53800;DHT22;39708;53.210;6.948;2022-12-18T11:51:45;-2.80;99.90
53800;DHT22;39708;53.210;6.948;2022-12-18T11:54:14;-2.80;99.90
53800;DHT22;39708;53.210;6.948;2022-12-18T11:59:35;-2.70;99.90
53800;DHT22;39708;53.210;6.948;2022-12-18T12:10:32;-2.50;99.90
53800;DHT22;39708;53.210;6.948;2022-12-18T12:16:07;-2.40;99.90
53800;DHT22;39708;53.210;6.948;2022-12-18T12:21:38;-2.40;99.90
53800;DHT22;39708;53.210;6.948;2022-12-18T12:24:18;-2.30;99.90
53800;DHT22;39708;53.210;6.948;2022-12-18T12:27:11;-2.30;99.90
53800;DHT22;39708;53.210;6.948;2022-12-18T12:30:11;-2.30;99.90
53800;DHT22;39708;53.210;6.948;2022-12-18T12:32:53;-2.20;99.90
53800;DHT22;39708;53.210;6.948;2022-12-18T12:35:42;-2.30;99.90
53800;DHT22;39708;53.210;6.948;2022-12-18T12:40:49;-2.30;99.90
53800;DHT22;39708;53.210;6.948;2022-12-18T12:43:36;-2.40;99.90
53800;DHT22;39708;53.210;6.948;2022-12-18T12:46:05;-2.40;99.90
53800;DHT22;39708;53.210;6.948;2022-12-18T12:48:49;-2.30;99.90
53800;DHT22;39708;53.210;6.948;2022-12-18T12:51:20;-2.30;99.90
53800;DHT22;39708;53.210;6.948;2022-12-18T12:53:47;-2.20;99.90
53800;DHT22;39708;53.210;6.948;2022-12-18T12:56:16;-2.20;99.90
53800;DHT22;39708;53.210;6.948;2022-12-18T13:01:24;-2.10;99.90
53800;DHT22;39708;53.210;6.948;2022-12-18T13:04:21;-2.10;99.90
53800;DHT22;39708;53.210;6.948;2022-12-18T13:06:59;-2.10;99.90
53800;DHT22;39708;53.210;6.948;2022-12-18T13:09:30;-2.10;99.90
53800;DHT22;39708;53.210;6.948;2022-12-18T13:12:02;-2.10;99.90
53800;DHT22;39708;53.210;6.948;2022-12-18T13:14:47;-2.10;99.90
53800;DHT22;39708;53.210;6.948;2022-12-18T13:19:50;-2.10;99.90
53800;DHT22;39708;53.210;6.948;2022-12-18T13:22:24;-2.10;99.90
53800;DHT22;39708;53.210;6.948;2022-12-18T13:24:53;-2.10;99.90
53800;DHT22;39708;53.210;6.948;2022-12-18T13:28:07;-2.10;99.90
53800;DHT22;39708;53.210;6.948;2022-12-18T13:35:52;-2.20;99.90
53800;DHT22;39708;53.210;6.948;2022-12-18T13:38:22;-2.20;99.90
53800;DHT22;39708;53.210;6.948;2022-12-18T13:48:37;-2.30;99.90
53800;DHT22;39708;53.210;6.948;2022-12-18T13:51:08;-2.30;99.90
53800;DHT22;39708;53.210;6.948;2022-12-18T13:54:01;-2.30;99.90
53800;DHT22;39708;53.210;6.948;2022-12-18T13:56:31;-2.40;99.90
53800;DHT22;39708;53.210;6.948;2022-12-18T13:59:16;-2.40;99.90
53800;DHT22;39708;53.210;6.948;2022-12-18T14:02:07;-2.50;99.90
53800;DHT22;39708;53.210;6.948;2022-12-18T14:04:34;-2.60;99.90
53800;DHT22;39708;53.210;6.948;2022-12-18T14:07:07;-2.50;99.90
53800;DHT22;39708;53.210;6.948;2022-12-18T14:09:43;-2.60;99.90
53800;DHT22;39708;53.210;6.948;2022-12-18T14:18:55;-2.60;99.90
53800;DHT22;39708;53.210;6.948;2022-12-18T14:21:28;-2.70;99.90
53800;DHT22;39708;53.210;6.948;2022-12-18T14:26:42;-2.70;99.90
53800;DHT22;39708;53.210;6.948;2022-12-18T14:29:24;-2.70;99.90
53800;DHT22;39708;53.210;6.948;2022-12-18T14:32:15;-2.70;99.90
53800;DHT22;39708;53.210;6.948;2022-12-18T14:34:47;-2.70;99.90
53800;DHT22;39708;53.210;6.948;2022-12-18T14:37:17;-2.80;99.90
53800;DHT22;39708;53.210;6.948;2022-12-18T14:39:54;-2.80;99.90
53800;DHT22;39708;53.210;6.948;2022-12-18T14:42:20;-2.30;99.90
53800;DHT22;39708;53.210;6.948;2022-12-18T14:44:45;-2.80;99.90
53800;DHT22;39708;53.210;6.948;2022-12-18T14:47:15;-2.60;99.90
53800;DHT22;39708;53.210;6.948;2022-12-18T14:49:42;-2.80;99.90
53800;DHT22;39708;53.210;6.948;2022-12-18T14:52:29;-2.90;99.90
53800;DHT22;39708;53.210;6.948;2022-12-18T14:54:56;-2.90;99.90
53800;DHT22;39708;53.210;6.948;2022-12-18T14:57:35;-2.20;99.90
53800;DHT22;39708;53.210;6.948;2022-12-18T15:00:16;-2.80;99.90
53800;DHT22;39708;53.210;6.948;2022-12-18T15:02:42;-2.80;99.90
53800;DHT22;39708;53.210;6.948;2022-12-18T15:05:31;-2.90;99.90
53800;DHT22;39708;53.210;6.948;2022-12-18T15:07:58;-2.90;99.90
53800;DHT22;39708;53.210;6.948;2022-12-18T15:10:30;-2.90;99.90
53800;DHT22;39708;53.210;6.948;2022-12-18T15:20:53;-3.10;99.90
53800;DHT22;39708;53.210;6.948;2022-12-18T15:26:13;-3.10;99.90
53800;DHT22;39708;53.210;6.948;2022-12-18T15:28:56;-3.00;99.90
53800;DHT22;39708;53.210;6.948;2022-12-18T15:31:31;-3.00;99.90
53800;DHT22;39708;53.210;6.948;2022-12-18T15:36:24;-3.00;99.90
53800;DHT22;39708;53.210;6.948;2022-12-18T15:38:52;-3.00;99.90
53800;DHT22;39708;53.210;6.948;2022-12-18T15:41:20;-3.00;99.90
53800;DHT22;39708;53.210;6.948;2022-12-18T15:43:47;-2.90;99.90
53800;DHT22;39708;53.210;6.948;2022-12-18T15:46:19;-2.90;99.90
53800;DHT22;39708;53.210;6.948;2022-12-18T15:48:48;-2.90;99.90
53800;DHT22;39708;53.210;6.948;2022-12-18T15:53:52;-2.90;99.90
53800;DHT22;39708;53.210;6.948;2022-12-18T15:56:19;-2.90;99.90
53800;DHT22;39708;53.210;6.948;2022-12-18T15:59:13;-3.00;99.90
53800;DHT22;39708;53.210;6.948;2022-12-18T16:01:40;-3.00;99.90
53800;DHT22;39708;53.210;6.948;2022-12-18T16:04:08;-2.90;99.90
53800;DHT22;39708;53.210;6.948;2022-12-18T16:06:34;-2.90;99.90
53800;DHT22;39708;53.210;6.948;2022-12-18T16:08:59;-2.80;99.90
53800;DHT22;39708;53.210;6.948;2022-12-18T16:11:27;-2.90;99.90
53800;DHT22;39708;53.210;6.948;2022-12-18T16:16:45;-2.80;99.90
53800;DHT22;39708;53.210;6.948;2022-12-18T16:19:11;-2.80;99.90
53800;DHT22;39708;53.210;6.948;2022-12-18T16:21:37;-2.80;99.90
53800;DHT22;39708;53.210;6.948;2022-12-18T16:24:03;-2.70;99.90
53800;DHT22;39708;53.210;6.948;2022-12-18T16:26:32;-2.70;99.90
53800;DHT22;39708;53.210;6.948;2022-12-18T16:28:58;-2.80;99.90
53800;DHT22;39708;53.210;6.948;2022-12-18T16:31:23;-2.80;99.90
53800;DHT22;39708;53.210;6.948;2022-12-18T16:33:49;-2.70;99.90
53800;DHT22;39708;53.210;6.948;2022-12-18T16:36:14;-2.70;99.90
53800;DHT22;39708;53.210;6.948;2022-12-18T16:38:40;-2.80;99.90
53800;DHT22;39708;53.210;6.948;2022-12-18T16:41:23;-2.70;99.90
53800;DHT22;39708;53.210;6.948;2022-12-18T16:43:59;-2.70;99.90
53800;DHT22;39708;53.210;6.948;2022-12-18T16:46:25;-2.70;99.90
53800;DHT22;39708;53.210;6.948;2022-12-18T16:48:51;-2.60;99.90
53800;DHT22;39708;53.210;6.948;2022-12-18T16:51:16;-2.60;99.90
53800;DHT22;39708;53.210;6.948;2022-12-18T16:53:42;-2.70;99.90
53800;DHT22;39708;53.210;6.948;2022-12-18T16:56:08;-2.70;99.90
53800;DHT22;39708;53.210;6.948;2022-12-18T16:58:34;-2.70;99.90
53800;DHT22;39708;53.210;6.948;2022-12-18T17:00:59;-2.80;99.90
53800;DHT22;39708;53.210;6.948;2022-12-18T17:03:25;-2.70;99.90
53800;DHT22;39708;53.210;6.948;2022-12-18T17:05:51;-2.90;99.90
53800;DHT22;39708;53.210;6.948;2022-12-18T17:08:17;-2.80;99.90
53800;DHT22;39708;53.210;6.948;2022-12-18T17:10:42;-2.90;99.90
53800;DHT22;39708;53.210;6.948;2022-12-18T17:13:08;-3.00;99.90
53800;DHT22;39708;53.210;6.948;2022-12-18T17:15:34;-2.90;99.90
53800;DHT22;39708;53.210;6.948;2022-12-18T17:18:00;-2.80;99.90
53800;DHT22;39708;53.210;6.948;2022-12-18T17:20:26;-2.80;99.90
53800;DHT22;39708;53.210;6.948;2022-12-18T17:22:52;-2.70;99.90
53800;DHT22;39708;53.210;6.948;2022-12-18T17:25:17;-2.70;99.90
53800;DHT22;39708;53.210;6.948;2022-12-18T17:27:43;-2.70;99.90
53800;DHT22;39708;53.210;6.948;2022-12-18T17:30:11;-2.70;99.90
53800;DHT22;39708;53.210;6.948;2022-12-18T17:32:36;-2.70;99.90
53800;DHT22;39708;53.210;6.948;2022-12-18T17:35:02;-2.60;99.90
53800;DHT22;39708;53.210;6.948;2022-12-18T17:37:28;-2.60;99.90
53800;DHT22;39708;53.210;6.948;2022-12-18T17:39:54;-2.60;99.90
53800;DHT22;39708;53.210;6.948;2022-12-18T17:42:19;-2.50;99.90